createdAt,value
2018-12-12T00:00:19.315Z,1.47
2018-12-12T00:02:59.670Z,1.80
2018-12-12T00:05:38.820Z,1.67
2018-12-12T00:08:16.760Z,1.57
2018-12-12T00:10:56.305Z,2.13
2018-12-12T00:13:36.678Z,1.70
2018-12-12T00:16:13.899Z,2.60
2018-12-12T00:18:53.093Z,2.20
2018-12-12T00:21:35.144Z,2.27
2018-12-12T00:24:14.780Z,1.80
2018-12-12T00:26:52.024Z,2.30
2018-12-12T00:29:34.350Z,1.90
2018-12-12T00:32:16.504Z,2.87
2018-12-12T00:34:55.584Z,2.53
2018-12-12T00:37:37.242Z,2.60
2018-12-12T00:40:17.707Z,2.00
2018-12-12T00:43:00.510Z,2.00
2018-12-12T00:45:43.511Z,3.17
2018-12-12T00:48:25.122Z,2.80
2018-12-12T00:51:05.099Z,2.90
2018-12-12T00:53:42.445Z,3.27
2018-12-12T00:56:22.863Z,3.30
2018-12-12T00:59:00.364Z,2.63
2018-12-12T01:01:41.698Z,2.97
2018-12-12T01:04:23.582Z,2.60
2018-12-12T01:07:03.142Z,2.50
2018-12-12T01:09:40.398Z,3.00
2018-12-12T01:12:22.061Z,2.63
2018-12-12T01:14:59.795Z,2.70
2018-12-12T01:17:37.727Z,3.80
2018-12-12T01:20:16.106Z,3.30
2018-12-12T01:22:53.973Z,3.07
2018-12-12T01:25:36.931Z,2.73
2018-12-12T01:28:14.813Z,2.50
2018-12-12T01:30:52.612Z,1.97
2018-12-12T01:33:34.899Z,4.43
2018-12-12T01:36:14.712Z,2.83
2018-12-12T01:38:52.202Z,2.67
2018-12-12T01:41:34.741Z,3.53
2018-12-12T01:44:14.616Z,2.80
2018-12-12T01:46:52.377Z,3.40
2018-12-12T01:49:31.837Z,3.43
2018-12-12T01:52:09.499Z,2.70
2018-12-12T01:54:47.294Z,3.10
2018-12-12T01:57:26.360Z,2.23
2018-12-12T02:00:05.526Z,1.87
2018-12-12T02:02:42.366Z,2.73
2018-12-12T02:05:20.198Z,2.53
2018-12-12T02:07:56.630Z,1.83
2018-12-12T02:10:34.293Z,2.80
2018-12-12T02:13:16.873Z,4.17
2018-12-12T02:15:56.750Z,2.30
2018-12-12T02:18:37.750Z,3.73
2018-12-12T02:21:16.358Z,2.00
2018-12-12T02:23:53.025Z,2.67
2018-12-12T02:26:32.161Z,2.17
2018-12-12T02:29:08.748Z,1.80
2018-12-12T02:31:50.638Z,2.80
2018-12-12T02:34:30.875Z,2.40
2018-12-12T02:37:08.615Z,2.80
2018-12-12T02:39:50.347Z,2.70
2018-12-12T02:42:30.801Z,3.13
2018-12-12T02:45:07.992Z,2.33
2018-12-12T02:47:48.245Z,2.40
2018-12-12T02:50:26.163Z,3.33
2018-12-12T02:53:07.674Z,2.70
2018-12-12T02:55:50.551Z,2.90
2018-12-12T02:58:30.040Z,3.23
2018-12-12T03:01:07.510Z,2.43
2018-12-12T03:03:49.195Z,3.40
2018-12-12T03:06:30.413Z,2.10
2018-12-12T03:09:08.779Z,2.13
2018-12-12T03:11:45.979Z,3.47
2018-12-12T03:14:25.590Z,2.07
2018-12-12T03:17:03.022Z,3.77
2018-12-12T03:19:42.740Z,3.43
2018-12-12T03:22:24.908Z,2.67
2018-12-12T03:25:02.340Z,2.73
2018-12-12T03:27:40.689Z,2.40
2018-12-12T03:30:23.421Z,3.23
2018-12-12T03:33:01.306Z,3.60
2018-12-12T03:35:40.842Z,4.37
2018-12-12T03:38:24.289Z,3.70
2018-12-12T03:41:02.123Z,3.03
2018-12-12T03:43:40.245Z,4.70
2018-12-12T03:46:17.925Z,3.77
2018-12-12T03:49:00.396Z,3.27
2018-12-12T03:51:40.122Z,2.50
2018-12-12T03:54:18.127Z,3.87
2018-12-12T03:56:54.223Z,4.07
2018-12-12T03:59:36.160Z,4.57
2018-12-12T04:02:14.284Z,3.70
2018-12-12T04:04:50.986Z,3.83
2018-12-12T04:07:29.832Z,3.93
2018-12-12T04:10:06.202Z,4.40
2018-12-12T04:12:43.233Z,4.30
2018-12-12T04:15:18.948Z,4.73
2018-12-12T04:18:00.752Z,3.27
2018-12-12T04:20:39.273Z,3.27
2018-12-12T04:23:22.046Z,3.03
2018-12-12T04:25:59.624Z,3.50
2018-12-12T04:28:39.653Z,3.27
2018-12-12T04:31:15.975Z,3.17
2018-12-12T04:33:54.519Z,3.50
2018-12-12T04:36:36.699Z,2.90
2018-12-12T04:39:18.683Z,2.67
2018-12-12T04:41:55.186Z,2.83
2018-12-12T04:44:37.063Z,2.97
2018-12-12T04:47:15.985Z,3.20
2018-12-12T04:49:53.621Z,2.80
2018-12-12T04:52:31.073Z,3.20
2018-12-12T04:55:07.619Z,3.20
2018-12-12T04:57:46.859Z,3.37
2018-12-12T05:00:23.227Z,2.70
2018-12-12T05:03:02.666Z,2.90
2018-12-12T05:05:39.589Z,3.10
2018-12-12T05:08:18.696Z,3.90
2018-12-12T05:10:55.828Z,3.00
2018-12-12T05:13:33.266Z,3.40
2018-12-12T05:16:10.052Z,2.80
2018-12-12T05:18:46.820Z,3.47
2018-12-12T05:21:26.828Z,3.00
2018-12-12T05:24:04.057Z,3.17
2018-12-12T05:26:46.754Z,3.73
2018-12-12T05:29:28.885Z,3.20
2018-12-12T05:32:10.251Z,3.50
2018-12-12T05:34:51.624Z,3.00
2018-12-12T05:37:32.357Z,3.27
2018-12-12T05:40:09.964Z,2.70
2018-12-12T05:42:49.713Z,4.80
2018-12-12T05:45:27.442Z,2.90
2018-12-12T05:48:06.676Z,5.00
2018-12-12T05:50:44.081Z,3.10
2018-12-12T05:53:21.688Z,3.03
2018-12-12T05:56:02.559Z,2.77
2018-12-12T05:58:41.663Z,2.57
2018-12-12T06:01:31.160Z,3.13
2018-12-12T06:04:10.243Z,2.90
2018-12-12T06:06:46.747Z,3.07
2018-12-12T06:09:28.244Z,3.53
2018-12-12T06:12:05.707Z,4.07
2018-12-12T06:14:45.508Z,3.43
2018-12-12T06:17:22.726Z,3.87
2018-12-12T06:20:05.632Z,2.97
2018-12-12T06:22:44.540Z,3.30
2018-12-12T06:25:21.861Z,3.13
2018-12-12T06:28:01.525Z,4.23
2018-12-12T06:30:37.964Z,2.93
2018-12-12T06:33:15.456Z,3.07
2018-12-12T06:35:55.481Z,3.53
2018-12-12T06:38:36.799Z,3.47
2018-12-12T06:41:16.567Z,3.80
2018-12-12T06:43:53.938Z,3.47
2018-12-12T06:46:35.794Z,3.70
2018-12-12T06:49:15.173Z,3.40
2018-12-12T06:51:54.433Z,3.80
2018-12-12T06:54:36.069Z,4.10
2018-12-12T06:57:11.916Z,4.30
2018-12-12T06:59:50.267Z,4.37
2018-12-12T07:02:29.057Z,4.13
2018-12-12T07:05:08.713Z,4.03
2018-12-12T07:07:47.906Z,3.73
2018-12-12T07:10:33.246Z,4.40
2018-12-12T07:13:10.064Z,4.63
2018-12-12T07:15:49.557Z,4.10
2018-12-12T07:18:27.036Z,4.00
2018-12-12T07:21:06.133Z,3.20
2018-12-12T07:23:43.316Z,3.53
2018-12-12T07:26:23.036Z,3.37
2018-12-12T07:28:53.429Z,3.83
2018-12-12T07:31:32.362Z,4.10
2018-12-12T07:34:09.264Z,4.20
2018-12-12T07:36:46.367Z,4.17
2018-12-12T07:39:26.038Z,4.10
2018-12-12T07:42:02.488Z,3.70
2018-12-12T07:44:39.866Z,4.13
2018-12-12T07:47:17.695Z,4.77
2018-12-12T07:49:59.134Z,6.03
2018-12-12T07:52:40.681Z,4.53
2018-12-12T07:55:18.318Z,4.47
2018-12-12T07:57:55.845Z,4.17
2018-12-12T08:00:34.983Z,5.03
2018-12-12T08:03:12.539Z,4.00
2018-12-12T08:05:54.293Z,4.60
2018-12-12T08:08:32.379Z,3.53
2018-12-12T08:11:12.125Z,4.70
2018-12-12T08:13:49.681Z,3.80
2018-12-12T08:16:48.677Z,3.93
2018-12-12T08:19:27.832Z,3.33
2018-12-12T08:22:04.723Z,4.50
2018-12-12T08:24:44.648Z,3.93
2018-12-12T08:27:26.264Z,3.87
2018-12-12T08:30:04.873Z,4.50
2018-12-12T08:32:44.453Z,4.87
2018-12-12T08:35:21.800Z,4.17
2018-12-12T08:38:03.105Z,4.00
2018-12-12T08:40:42.069Z,4.77
2018-12-12T08:43:23.503Z,3.70
2018-12-12T08:46:00.232Z,3.73
2018-12-12T08:48:40.145Z,4.10
2018-12-12T08:51:16.917Z,3.57
2018-12-12T08:53:58.606Z,3.50
2018-12-12T08:56:37.270Z,3.97
2018-12-12T08:59:15.242Z,3.13
2018-12-12T09:01:52.635Z,3.80
2018-12-12T09:04:32.205Z,3.83
2018-12-12T09:07:11.728Z,3.60
2018-12-12T09:09:53.795Z,4.00
2018-12-12T09:12:33.483Z,3.97
2018-12-12T09:15:13.747Z,4.27
2018-12-12T09:17:51.130Z,4.37
2018-12-12T09:20:28.597Z,3.57
2018-12-12T09:23:08.461Z,3.93
2018-12-12T09:25:47.692Z,3.80
2018-12-12T09:28:25.378Z,4.00
2018-12-12T09:31:04.115Z,4.20
2018-12-12T09:33:41.632Z,5.40
2018-12-12T09:36:20.975Z,4.37
2018-12-12T09:38:57.872Z,3.97
2018-12-12T09:41:40.163Z,5.30
2018-12-12T09:44:19.356Z,3.20
2018-12-12T09:47:00.919Z,4.00
2018-12-12T09:49:38.072Z,5.20
2018-12-12T09:52:17.101Z,4.33
2018-12-12T09:54:56.430Z,5.27
2018-12-12T09:57:38.501Z,4.00
2018-12-12T10:00:19.075Z,3.70
2018-12-12T10:02:55.734Z,4.50
2018-12-12T10:05:37.340Z,3.77
2018-12-12T10:08:14.672Z,5.03
2018-12-12T10:10:52.425Z,4.00
2018-12-12T10:13:34.353Z,5.53
2018-12-12T10:16:13.377Z,5.13
2018-12-12T10:18:50.800Z,5.00
2018-12-12T10:21:21.289Z,4.10
2018-12-12T10:24:00.938Z,4.43
2018-12-12T10:26:37.940Z,5.63
2018-12-12T10:29:19.438Z,3.43
2018-12-12T10:31:57.141Z,4.93
2018-12-12T10:34:36.287Z,5.60
2018-12-12T10:37:14.247Z,5.30
2018-12-12T10:39:51.023Z,5.63
2018-12-12T10:42:27.623Z,5.40
2018-12-12T10:45:05.410Z,3.83
2018-12-12T10:47:44.229Z,4.83
2018-12-12T10:50:22.019Z,4.00
2018-12-12T10:52:59.481Z,3.90
2018-12-12T10:55:36.452Z,5.00
2018-12-12T10:58:14.005Z,4.73
2018-12-12T11:00:56.757Z,5.00
2018-12-12T11:03:44.306Z,5.67
2018-12-12T11:06:23.610Z,4.40
2018-12-12T11:09:00.567Z,5.03
2018-12-12T11:11:39.866Z,5.30
2018-12-12T11:14:16.662Z,4.77
2018-12-12T11:16:56.064Z,4.67
2018-12-12T11:19:37.886Z,4.07
2018-12-12T11:22:14.773Z,4.83
2018-12-12T11:24:54.247Z,4.60
2018-12-12T11:27:37.280Z,5.10
2018-12-12T11:30:19.052Z,5.17
2018-12-12T11:33:00.252Z,6.07
2018-12-12T11:35:39.356Z,5.13
2018-12-12T11:38:18.212Z,4.70
2018-12-12T11:40:59.907Z,5.20
2018-12-12T11:43:39.151Z,4.50
2018-12-12T11:46:18.386Z,4.90
2018-12-12T11:48:56.067Z,4.77
2018-12-12T11:51:34.107Z,4.80
2018-12-12T11:54:11.477Z,4.43
2018-12-12T11:56:50.146Z,4.40
2018-12-12T11:59:26.876Z,4.77
2018-12-12T12:02:06.329Z,5.13
2018-12-12T12:04:43.525Z,3.97
2018-12-12T12:07:22.805Z,4.17
2018-12-12T12:09:59.220Z,4.50
2018-12-12T12:12:38.018Z,4.67
2018-12-12T12:15:15.377Z,3.80
2018-12-12T12:17:54.210Z,4.47
2018-12-12T12:20:31.411Z,4.30
2018-12-12T12:23:13.806Z,3.50
2018-12-12T12:25:52.850Z,4.10
2018-12-12T12:28:32.366Z,3.47
2018-12-12T12:31:12.144Z,4.07
2018-12-12T12:33:48.840Z,3.70
2018-12-12T12:36:28.532Z,3.63
2018-12-12T12:39:07.025Z,3.60
2018-12-12T12:41:48.346Z,3.43
2018-12-12T12:44:24.938Z,3.87
2018-12-12T12:47:06.317Z,3.60
2018-12-12T12:49:47.984Z,3.30
2018-12-12T12:52:27.198Z,3.40
2018-12-12T12:55:04.315Z,3.20
2018-12-12T12:57:43.824Z,3.60
2018-12-12T13:00:20.581Z,3.57
2018-12-12T13:03:02.378Z,3.67
2018-12-12T13:05:41.590Z,3.20
2018-12-12T13:08:21.133Z,3.07
2018-12-12T13:11:00.210Z,3.27
2018-12-12T13:13:39.226Z,3.33
2018-12-12T13:16:16.526Z,3.50
2018-12-12T13:18:53.257Z,3.20
2018-12-12T13:21:35.413Z,2.90
2018-12-12T13:24:14.518Z,3.53
2018-12-12T13:26:53.684Z,3.77
2018-12-12T13:29:32.932Z,3.60
2018-12-12T13:32:10.627Z,2.80
2018-12-12T13:34:48.351Z,2.93
2018-12-12T13:37:26.551Z,3.10
2018-12-12T13:40:08.936Z,3.00
2018-12-12T13:42:48.431Z,3.17
2018-12-12T13:45:24.871Z,2.90
2018-12-12T13:48:01.012Z,3.10
2018-12-12T13:50:30.331Z,3.47
2018-12-12T13:53:02.351Z,2.97
2018-12-12T13:55:39.337Z,2.80
2018-12-12T13:58:21.072Z,2.70
2018-12-12T14:00:56.587Z,2.10
2018-12-12T14:03:38.177Z,2.60
2018-12-12T14:06:14.434Z,2.40
2018-12-12T14:08:51.727Z,2.50
2018-12-12T14:11:27.810Z,2.67
2018-12-12T14:14:06.893Z,2.60
2018-12-12T14:16:44.550Z,2.43
2018-12-12T14:19:21.230Z,2.63
2018-12-12T14:21:57.614Z,2.37
2018-12-12T14:24:29.863Z,2.73
2018-12-12T14:27:09.022Z,4.80
2018-12-12T14:29:46.396Z,3.97
2018-12-12T14:32:26.734Z,2.73
2018-12-12T14:35:04.655Z,2.57
2018-12-12T14:37:42.345Z,2.67
2018-12-12T14:40:18.364Z,2.57
2018-12-12T14:42:57.292Z,3.07
2018-12-12T14:45:36.279Z,3.23
2018-12-12T14:48:13.781Z,2.90
2018-12-12T14:50:50.427Z,3.07
2018-12-12T14:53:28.255Z,3.27
2018-12-12T14:56:00.342Z,2.90
2018-12-12T14:58:37.728Z,3.37
2018-12-12T15:01:19.691Z,2.83
2018-12-12T15:03:59.120Z,2.83
2018-12-12T15:06:34.848Z,3.13
2018-12-12T15:09:16.853Z,3.40
2018-12-12T15:11:53.981Z,3.23
2018-12-12T15:14:32.723Z,3.07
2018-12-12T15:17:10.300Z,3.47
2018-12-12T15:19:48.317Z,2.97
2018-12-12T15:22:30.489Z,3.00
2018-12-12T15:25:09.311Z,3.30
2018-12-12T15:27:52.538Z,3.23
2018-12-12T15:30:33.872Z,3.13
2018-12-12T15:33:13.218Z,3.50
2018-12-12T15:35:45.615Z,3.70
2018-12-12T15:38:17.649Z,3.70
2018-12-12T15:40:57.877Z,3.10
2018-12-12T15:43:37.832Z,3.97
2018-12-12T15:46:16.548Z,3.37
2018-12-12T15:48:52.909Z,4.07
2018-12-12T15:51:34.733Z,3.43
2018-12-12T15:54:06.482Z,3.83
2018-12-12T15:56:45.820Z,3.70
2018-12-12T15:59:23.059Z,3.70
2018-12-12T16:02:01.198Z,3.80
2018-12-12T16:04:48.749Z,3.57
2018-12-12T16:07:25.490Z,3.00
2018-12-12T16:10:07.475Z,3.80
2018-12-12T16:12:43.960Z,3.97
2018-12-12T16:15:23.372Z,3.60
2018-12-12T16:18:03.238Z,4.17
2018-12-12T16:20:41.221Z,4.03
2018-12-12T16:23:18.772Z,3.77
2018-12-12T16:25:56.902Z,3.90
2018-12-12T16:28:36.769Z,4.03
2018-12-12T16:31:17.978Z,3.30
2018-12-12T16:33:57.067Z,3.67
2018-12-12T16:36:36.764Z,4.70
2018-12-12T16:39:16.849Z,4.93
2018-12-12T16:41:53.574Z,4.23
2018-12-12T16:44:35.541Z,3.90
2018-12-12T16:47:13.648Z,3.53
2018-12-12T16:49:51.708Z,3.77
2018-12-12T16:52:29.805Z,5.27
2018-12-12T16:55:06.549Z,4.30
2018-12-12T16:57:50.038Z,3.63
2018-12-12T17:00:34.287Z,4.27
2018-12-12T17:03:13.405Z,3.90
2018-12-12T17:05:45.427Z,4.47
2018-12-12T17:08:27.262Z,6.20
2018-12-12T17:11:07.012Z,4.10
2018-12-12T17:13:49.337Z,4.17
2018-12-12T17:16:26.547Z,3.97
2018-12-12T17:19:06.149Z,3.93
2018-12-12T17:21:42.216Z,4.10
2018-12-12T17:24:20.026Z,4.60
2018-12-12T17:27:04.913Z,5.20
2018-12-12T17:29:40.833Z,4.77
2018-12-12T17:32:18.633Z,4.40
2018-12-12T17:34:55.315Z,4.33
2018-12-12T17:37:32.495Z,4.03
2018-12-12T17:40:10.164Z,4.80
2018-12-12T17:42:52.075Z,3.90
2018-12-12T17:45:29.804Z,4.43
2018-12-12T17:48:06.792Z,3.73
2018-12-12T17:50:46.360Z,4.17
2018-12-12T17:53:18.812Z,3.83
2018-12-12T17:55:56.475Z,4.13
2018-12-12T17:58:38.422Z,4.90
2018-12-12T18:01:17.990Z,4.43
2018-12-12T18:03:57.205Z,4.70
2018-12-12T18:06:34.377Z,4.40
2018-12-12T18:09:13.112Z,5.70
2018-12-12T18:11:49.772Z,5.30
2018-12-12T18:14:28.952Z,4.13
2018-12-12T18:17:06.059Z,5.90
2018-12-12T18:19:45.082Z,4.23
2018-12-12T18:22:22.521Z,4.57
2018-12-12T18:25:02.012Z,4.30
2018-12-12T18:27:38.095Z,5.17
2018-12-12T18:30:15.375Z,5.20
2018-12-12T18:32:52.304Z,5.27
2018-12-12T18:35:31.489Z,4.97
2018-12-12T18:38:08.013Z,4.93
2018-12-12T18:40:47.421Z,5.03
2018-12-12T18:43:28.901Z,4.93
2018-12-12T18:46:05.625Z,5.13
2018-12-12T18:48:42.979Z,4.40
2018-12-12T18:51:20.642Z,5.17
2018-12-12T18:53:59.594Z,4.83
2018-12-12T18:56:39.385Z,4.00
2018-12-12T18:59:16.814Z,5.20
2018-12-12T19:01:58.889Z,5.67
2018-12-12T19:04:35.459Z,5.83
2018-12-12T19:07:15.350Z,6.53
2018-12-12T19:09:52.353Z,6.07
2018-12-12T19:12:35.270Z,5.90
2018-12-12T19:15:12.428Z,6.13
2018-12-12T19:17:54.708Z,5.40
2018-12-12T19:20:33.672Z,5.67
2018-12-12T19:23:10.888Z,5.50
2018-12-12T19:25:50.875Z,5.87
2018-12-12T19:28:27.573Z,5.90
2018-12-12T19:31:07.454Z,6.07
2018-12-12T19:33:44.885Z,5.07
2018-12-12T19:36:22.945Z,5.30
2018-12-12T19:39:00.811Z,5.97
2018-12-12T19:41:39.946Z,4.67
2018-12-12T19:44:17.457Z,5.27
2018-12-12T19:46:56.517Z,5.43
2018-12-12T19:49:36.528Z,5.27
2018-12-12T19:52:16.468Z,5.13
2018-12-12T19:54:53.298Z,5.17
2018-12-12T19:57:35.128Z,4.03
2018-12-12T20:00:15.191Z,4.50
2018-12-12T20:02:57.251Z,6.10
2018-12-12T20:05:34.462Z,5.30
2018-12-12T20:08:17.528Z,4.43
2018-12-12T20:10:57.622Z,5.37
2018-12-12T20:13:38.850Z,6.27
2018-12-12T20:16:17.665Z,5.57
2018-12-12T20:19:00.256Z,5.63
2018-12-12T20:21:38.457Z,4.93
2018-12-12T20:24:15.404Z,5.00
2018-12-12T20:27:07.441Z,5.07
2018-12-12T20:29:50.334Z,4.63
2018-12-12T20:32:27.429Z,5.80
2018-12-12T20:35:07.262Z,5.20
2018-12-12T20:37:44.292Z,5.47
2018-12-12T20:40:26.208Z,7.20
2018-12-12T20:43:05.343Z,5.63
2018-12-12T20:45:41.909Z,5.57
2018-12-12T20:48:20.811Z,6.33
2018-12-12T20:50:57.643Z,4.80
2018-12-12T20:53:40.059Z,7.03
2018-12-12T20:56:19.164Z,6.30
2018-12-12T20:59:01.078Z,5.90
2018-12-12T21:01:36.799Z,8.13
2018-12-12T21:04:15.839Z,6.60
2018-12-12T21:06:52.990Z,6.57
2018-12-12T21:09:32.162Z,7.43
2018-12-12T21:12:09.665Z,6.83
2018-12-12T21:14:48.441Z,7.77
2018-12-12T21:17:25.407Z,7.67
2018-12-12T21:20:03.237Z,7.07
2018-12-12T21:22:40.652Z,7.53
2018-12-12T21:25:17.730Z,6.90
2018-12-12T21:27:54.268Z,6.77
2018-12-12T21:30:33.625Z,7.90
2018-12-12T21:33:11.263Z,7.20
2018-12-12T21:35:53.134Z,9.57
2018-12-12T21:38:32.941Z,7.70
2018-12-12T21:41:11.654Z,7.37
2018-12-12T21:43:48.893Z,7.57
2018-12-12T21:46:26.506Z,8.70
2018-12-12T21:49:03.499Z,7.63
2018-12-12T21:51:43.722Z,7.83
2018-12-12T21:54:21.288Z,8.87
2018-12-12T21:57:04.372Z,9.40
2018-12-12T22:03:15.959Z,8.10
2018-12-12T22:05:53.109Z,8.20
2018-12-12T22:08:34.837Z,8.57
2018-12-12T22:11:14.405Z,8.70
2018-12-12T22:13:51.935Z,9.53
2018-12-12T22:16:31.540Z,8.90
2018-12-12T22:19:13.372Z,8.07
2018-12-12T22:21:56.435Z,7.40
2018-12-12T22:24:36.239Z,7.47
2018-12-12T22:27:15.724Z,9.00
2018-12-12T22:29:52.760Z,8.13
2018-12-12T22:32:30.504Z,8.23
2018-12-12T22:35:06.917Z,8.00
2018-12-12T22:37:46.471Z,8.53
2018-12-12T22:40:23.327Z,8.40
2018-12-12T22:43:06.302Z,8.97
2018-12-12T22:45:44.279Z,7.17
2018-12-12T22:48:21.865Z,9.17
2018-12-12T22:51:03.796Z,7.80
2018-12-12T22:53:45.253Z,8.47
2018-12-12T22:56:23.829Z,7.83
2018-12-12T22:59:00.348Z,7.90
2018-12-12T23:01:39.618Z,8.13
2018-12-12T23:04:16.636Z,8.77
2018-12-12T23:06:56.839Z,8.80
2018-12-12T23:09:36.273Z,7.87
2018-12-12T23:12:15.407Z,8.37
2018-12-12T23:14:57.338Z,7.70
2018-12-12T23:17:37.290Z,7.87
2018-12-12T23:20:15.003Z,7.37
2018-12-12T23:22:52.300Z,10.37
2018-12-12T23:25:33.266Z,8.87
2018-12-12T23:28:13.169Z,7.93
2018-12-12T23:30:50.228Z,8.40
2018-12-12T23:33:29.886Z,9.10
2018-12-12T23:36:06.839Z,8.27
2018-12-12T23:38:45.879Z,7.90
2018-12-12T23:41:22.945Z,8.80
2018-12-12T23:44:02.613Z,8.87
2018-12-12T23:46:41.979Z,8.97
2018-12-12T23:49:21.264Z,9.43
2018-12-12T23:51:58.129Z,8.57
2018-12-12T23:54:39.872Z,9.03
2018-12-12T23:57:21.784Z,7.60
